sensor_id;sensor_type;location;lat;lon;timestamp;pressure;altitude;pressure_sealevel;temperature;humidity
76590;BME280;65471;55.908;37.880;2024-02-23T00:00:39;100078.66;;;-3.34;100.00
76590;BME280;65471;55.908;37.880;2024-02-23T00:03:06;100064.75;;;-3.36;100.00
76590;BME280;65471;55.908;37.880;2024-02-23T00:05:35;100074.19;;;-3.34;100.00
76590;BME280;65471;55.908;37.880;2024-02-23T00:08:02;100071.53;;;-3.34;100.00
76590;BME280;65471;55.908;37.880;2024-02-23T00:10:29;100065.44;;;-3.34;100.00
76590;BME280;65471;55.908;37.880;2024-02-23T00:12:56;100070.72;;;-3.34;100.00
76590;BME280;65471;55.908;37.880;2024-02-23T00:15:23;100072.41;;;-3.33;100.00
76590;BME280;65471;55.908;37.880;2024-02-23T00:17:52;100069.75;;;-3.33;100.00
76590;BME280;65471;55.908;37.880;2024-02-23T00:20:19;100073.09;;;-3.31;100.00
76590;BME280;65471;55.908;37.880;2024-02-23T00:22:46;100065.44;;;-3.34;100.00
76590;BME280;65471;55.908;37.880;2024-02-23T00:25:13;100071.53;;;-3.34;100.00
76590;BME280;65471;55.908;37.880;2024-02-23T00:27:40;100069.75;;;-3.33;100.00
76590;BME280;65471;55.908;37.880;2024-02-23T00:30:08;100070.72;;;-3.34;99.99
76590;BME280;65471;55.908;37.880;2024-02-23T00:32:35;100075.03;;;-3.33;100.00
76590;BME280;65471;55.908;37.880;2024-02-23T00:35:03;100073.38;;;-3.34;100.00
76590;BME280;65471;55.908;37.880;2024-02-23T00:37:30;100072.41;;;-3.33;100.00
76590;BME280;65471;55.908;37.880;2024-02-23T00:40:02;100072.53;;;-3.35;100.00
76590;BME280;65471;55.908;37.880;2024-02-23T00:42:31;100069.75;;;-3.33;100.00
76590;BME280;65471;55.908;37.880;2024-02-23T00:44:58;100075.03;;;-3.33;100.00
76590;BME280;65471;55.908;37.880;2024-02-23T00:47:26;100077.81;;;-3.35;100.00
76590;BME280;65471;55.908;37.880;2024-02-23T00:49:54;100076.69;;;-3.32;100.00
76590;BME280;65471;55.908;37.880;2024-02-23T00:52:21;100079.34;;;-3.32;100.00
76590;BME280;65471;55.908;37.880;2024-02-23T00:54:48;100079.47;;;-3.34;100.00
76590;BME280;65471;55.908;37.880;2024-02-23T00:57:15;100076.00;;;-3.34;100.00
76590;BME280;65471;55.908;37.880;2024-02-23T00:59:45;100075.03;;;-3.33;100.00
76590;BME280;65471;55.908;37.880;2024-02-23T01:02:11;100083.94;;;-3.34;100.00
76590;BME280;65471;55.908;37.880;2024-02-23T01:04:38;100082.13;;;-3.34;100.00
76590;BME280;65471;55.908;37.880;2024-02-23T01:07:05;100074.03;;;-3.32;100.00
76590;BME280;65471;55.908;37.880;2024-02-23T01:09:32;100082.97;;;-3.33;100.00
76590;BME280;65471;55.908;37.880;2024-02-23T01:11:59;100088.53;;;-3.36;100.00
76590;BME280;65471;55.908;37.880;2024-02-23T01:14:26;100086.72;;;-3.36;100.00
76590;BME280;65471;55.908;37.880;2024-02-23T01:16:53;100087.53;;;-3.35;100.00
76590;BME280;65471;55.908;37.880;2024-02-23T01:19:20;100082.13;;;-3.34;100.00
76590;BME280;65471;55.908;37.880;2024-02-23T01:21:47;100088.13;;;-3.32;100.00
76590;BME280;65471;55.908;37.880;2024-02-23T01:24:15;100089.91;;;-3.32;100.00
76590;BME280;65471;55.908;37.880;2024-02-23T01:26:42;100085.34;;;-3.30;100.00
76590;BME280;65471;55.908;37.880;2024-02-23T01:29:10;100087.03;;;-3.29;100.00
76590;BME280;65471;55.908;37.880;2024-02-23T01:31:37;100086.03;;;-3.28;100.00
76590;BME280;65471;55.908;37.880;2024-02-23T01:34:04;100085.34;;;-3.30;100.00
76590;BME280;65471;55.908;37.880;2024-02-23T01:36:31;100081.00;;;-3.31;100.00
76590;BME280;65471;55.908;37.880;2024-02-23T01:38:58;100083.66;;;-3.31;100.00
76590;BME280;65471;55.908;37.880;2024-02-23T01:41:24;100077.41;;;-3.30;100.00
76590;BME280;65471;55.908;37.880;2024-02-23T01:43:52;100065.16;;;-3.31;100.00
76590;BME280;65471;55.908;37.880;2024-02-23T01:46:19;100068.75;;;-3.32;100.00
76590;BME280;65471;55.908;37.880;2024-02-23T01:48:47;100063.06;;;-3.37;100.00
76590;BME280;65471;55.908;37.880;2024-02-23T01:51:14;100071.41;;;-3.32;100.00
76590;BME280;65471;55.908;37.880;2024-02-23T01:53:41;100081.16;;;-3.33;100.00
76590;BME280;65471;55.908;37.880;2024-02-23T01:56:08;100081.00;;;-3.31;100.00
76590;BME280;65471;55.908;37.880;2024-02-23T01:58:37;100079.91;;;-3.28;100.00
76590;BME280;65471;55.908;37.880;2024-02-23T02:01:04;100087.72;;;-3.27;100.00
76590;BME280;65471;55.908;37.880;2024-02-23T02:03:32;100073.66;;;-3.27;100.00
76590;BME280;65471;55.908;37.880;2024-02-23T02:06:00;100078.09;;;-3.28;100.00
76590;BME280;65471;55.908;37.880;2024-02-23T02:08:27;100085.06;;;-3.27;100.00
76590;BME280;65471;55.908;37.880;2024-02-23T02:10:54;100077.00;;;-3.25;100.00
76590;BME280;65471;55.908;37.880;2024-02-23T02:13:21;100076.19;;;-3.26;100.00
76590;BME280;65471;55.908;37.880;2024-02-23T02:15:48;100084.09;;;-3.26;100.00
76590;BME280;65471;55.908;37.880;2024-02-23T02:18:16;100080.88;;;-3.30;100.00
76590;BME280;65471;55.908;37.880;2024-02-23T02:20:50;100074.78;;;-3.30;100.00
76590;BME280;65471;55.908;37.880;2024-02-23T02:23:19;100063.75;;;-3.35;100.00
76590;BME280;65471;55.908;37.880;2024-02-23T02:25:57;100067.09;;;-3.33;100.00
76590;BME280;65471;55.908;37.880;2024-02-23T02:28:25;100067.53;;;-3.28;100.00
76590;BME280;65471;55.908;37.880;2024-02-23T02:30:52;100068.50;;;-3.29;100.00
76590;BME280;65471;55.908;37.880;2024-02-23T02:33:20;100079.78;;;-3.27;100.00
76590;BME280;65471;55.908;37.880;2024-02-23T02:35:48;100077.00;;;-3.25;100.00
76590;BME280;65471;55.908;37.880;2024-02-23T02:38:16;100078.53;;;-3.23;100.00
76590;BME280;65471;55.908;37.880;2024-02-23T02:40:43;100072.28;;;-3.22;100.00
76590;BME280;65471;55.908;37.880;2024-02-23T02:43:11;100077.44;;;-3.20;100.00
76590;BME280;65471;55.908;37.880;2024-02-23T02:45:38;100068.66;;;-3.21;100.00
76590;BME280;65471;55.908;37.880;2024-02-23T02:48:05;100073.25;;;-3.23;100.00
76590;BME280;65471;55.908;37.880;2024-02-23T02:50:32;100077.72;;;-3.23;100.00
76590;BME280;65471;55.908;37.880;2024-02-23T02:52:59;100077.72;;;-3.23;100.00
76590;BME280;65471;55.908;37.880;2024-02-23T02:55:26;100072.28;;;-3.22;100.00
76590;BME280;65471;55.908;37.880;2024-02-23T02:57:53;100076.59;;;-3.21;100.00
76590;BME280;65471;55.908;37.880;2024-02-23T03:00:20;100078.28;;;-3.20;100.00
76590;BME280;65471;55.908;37.880;2024-02-23T03:02:47;100076.19;;;-3.16;100.00
76590;BME280;65471;55.908;37.880;2024-02-23T03:05:14;100078.56;;;-3.13;100.00
76590;BME280;65471;55.908;37.880;2024-02-23T03:07:41;100075.34;;;-3.17;100.00
76590;BME280;65471;55.908;37.880;2024-02-23T03:10:09;100053.16;;;-3.35;100.00
76590;BME280;65471;55.908;37.880;2024-02-23T03:12:36;100078.84;;;-3.16;100.00
76590;BME280;65471;55.908;37.880;2024-02-23T03:15:03;100080.63;;;-3.17;100.00
76590;BME280;65471;55.908;37.880;2024-02-23T03:17:30;100071.59;;;-3.14;100.00
76590;BME280;65471;55.908;37.880;2024-02-23T03:19:58;100071.47;;;-3.13;100.00
76590;BME280;65471;55.908;37.880;2024-02-23T03:22:25;100074.09;;;-3.13;100.00
76590;BME280;65471;55.908;37.880;2024-02-23T03:24:52;100081.34;;;-3.15;100.00
76590;BME280;65471;55.908;37.880;2024-02-23T03:27:19;100084.56;;;-3.11;100.00
76590;BME280;65471;55.908;37.880;2024-02-23T03:29:47;100089.69;;;-3.09;100.00
76590;BME280;65471;55.908;37.880;2024-02-23T03:32:14;100075.47;;;-3.18;100.00
76590;BME280;65471;55.908;37.880;2024-02-23T03:34:41;100095.72;;;-3.07;100.00
76590;BME280;65471;55.908;37.880;2024-02-23T03:37:10;100094.75;;;-3.06;100.00
76590;BME280;65471;55.908;37.880;2024-02-23T03:39:37;100101.00;;;-3.07;100.00
76590;BME280;65471;55.908;37.880;2024-02-23T03:42:04;100101.13;;;-3.09;100.00
76590;BME280;65471;55.908;37.880;2024-02-23T03:44:31;100103.66;;;-3.07;100.00
76590;BME280;65471;55.908;37.880;2024-02-23T03:46:58;100101.97;;;-3.08;100.00
76590;BME280;65471;55.908;37.880;2024-02-23T03:49:26;100115.31;;;-3.10;100.00
76590;BME280;65471;55.908;37.880;2024-02-23T03:51:53;100102.94;;;-3.09;100.00
76590;BME280;65471;55.908;37.880;2024-02-23T03:54:20;100113.38;;;-3.08;100.00
76590;BME280;65471;55.908;37.880;2024-02-23T03:56:46;100107.25;;;-3.08;100.00
76590;BME280;65471;55.908;37.880;2024-02-23T03:59:13;100110.03;;;-3.10;100.00
76590;BME280;65471;55.908;37.880;2024-02-23T04:01:41;100108.22;;;-3.09;100.00
76590;BME280;65471;55.908;37.880;2024-02-23T04:04:08;100111.00;;;-3.11;100.00
76590;BME280;65471;55.908;37.880;2024-02-23T04:06:35;100110.72;;;-3.08;100.00
76590;BME280;65471;55.908;37.880;2024-02-23T04:09:02;100111.72;;;-3.09;100.00
76590;BME280;65471;55.908;37.880;2024-02-23T04:11:32;100106.28;;;-3.07;100.00
76590;BME280;65471;55.908;37.880;2024-02-23T04:14:00;100101.69;;;-3.05;100.00
76590;BME280;65471;55.908;37.880;2024-02-23T04:16:28;100110.63;;;-3.06;100.00
76590;BME280;65471;55.908;37.880;2024-02-23T04:18:55;100106.44;;;-3.09;100.00
76590;BME280;65471;55.908;37.880;2024-02-23T04:21:23;100114.22;;;-3.07;100.00
76590;BME280;65471;55.908;37.880;2024-02-23T04:23:50;100120.63;;;-3.10;100.00
76590;BME280;65471;55.908;37.880;2024-02-23T04:26:17;100120.03;;;-3.14;100.00
76590;BME280;65471;55.908;37.880;2024-02-23T04:28:44;100131.19;;;-3.10;100.00
76590;BME280;65471;55.908;37.880;2024-02-23T04:31:11;100132.03;;;-3.09;100.00
76590;BME280;65471;55.908;37.880;2024-02-23T04:33:39;100133.44;;;-3.05;100.00
76590;BME280;65471;55.908;37.880;2024-02-23T04:36:06;100132.16;;;-3.11;100.00
76590;BME280;65471;55.908;37.880;2024-02-23T04:38:36;100143.31;;;-3.07;100.00
76590;BME280;65471;55.908;37.880;2024-02-23T04:41:03;100126.03;;;-3.12;100.00
76590;BME280;65471;55.908;37.880;2024-02-23T04:43:33;100131.50;;;-3.03;100.00
76590;BME280;65471;55.908;37.880;2024-02-23T04:46:00;100136.78;;;-3.03;100.00
76590;BME280;65471;55.908;37.880;2024-02-23T04:48:27;100137.63;;;-3.03;100.00
76590;BME280;65471;55.908;37.880;2024-02-23T04:50:54;100142.91;;;-3.03;100.00
76590;BME280;65471;55.908;37.880;2024-02-23T04:53:20;100147.09;;;-3.00;100.00
76590;BME280;65471;55.908;37.880;2024-02-23T04:55:47;100145.41;;;-3.01;100.00
76590;BME280;65471;55.908;37.880;2024-02-23T04:58:14;100150.56;;;-3.00;100.00
76590;BME280;65471;55.908;37.880;2024-02-23T05:00:42;100146.13;;;-2.99;100.00
76590;BME280;65471;55.908;37.880;2024-02-23T05:03:09;100147.78;;;-2.98;100.00
76590;BME280;65471;55.908;37.880;2024-02-23T05:05:38;100147.66;;;-2.97;100.00
76590;BME280;65471;55.908;37.880;2024-02-23T05:08:06;100145.16;;;-2.98;100.00
76590;BME280;65471;55.908;37.880;2024-02-23T05:10:34;100144.75;;;-2.93;100.00
76590;BME280;65471;55.908;37.880;2024-02-23T05:13:01;100159.50;;;-2.91;100.00
76590;BME280;65471;55.908;37.880;2024-02-23T05:15:28;100160.09;;;-2.87;100.00
76590;BME280;65471;55.908;37.880;2024-02-23T05:17:54;100161.19;;;-2.90;100.00
76590;BME280;65471;55.908;37.880;2024-02-23T05:20:22;100168.03;;;-2.87;100.00
76590;BME280;65471;55.908;37.880;2024-02-23T05:22:49;100162.31;;;-2.83;100.00
76590;BME280;65471;55.908;37.880;2024-02-23T05:25:16;100165.69;;;-2.81;100.00
76590;BME280;65471;55.908;37.880;2024-02-23T05:27:43;100163.03;;;-2.81;100.00
76590;BME280;65471;55.908;37.880;2024-02-23T05:30:11;100159.41;;;-2.80;100.00
76590;BME280;65471;55.908;37.880;2024-02-23T05:32:38;100167.47;;;-2.81;100.00
76590;BME280;65471;55.908;37.880;2024-02-23T05:35:06;100161.91;;;-2.78;100.00
76590;BME280;65471;55.908;37.880;2024-02-23T05:37:33;100161.91;;;-2.78;100.00
76590;BME280;65471;55.908;37.880;2024-02-23T05:40:00;100176.97;;;-2.79;100.00
76590;BME280;65471;55.908;37.880;2024-02-23T05:42:30;100180.03;;;-2.73;100.00
76590;BME280;65471;55.908;37.880;2024-02-23T05:44:57;100181.56;;;-2.71;100.00
76590;BME280;65471;55.908;37.880;2024-02-23T05:47:24;100178.09;;;-2.71;100.00
76590;BME280;65471;55.908;37.880;2024-02-23T05:49:51;100172.09;;;-2.73;100.00
76590;BME280;65471;55.908;37.880;2024-02-23T05:52:18;100178.09;;;-2.71;100.00
76590;BME280;65471;55.908;37.880;2024-02-23T05:54:45;100185.06;;;-2.70;100.00
76590;BME280;65471;55.908;37.880;2024-02-23T05:57:15;100171.69;;;-2.69;100.00
76590;BME280;65471;55.908;37.880;2024-02-23T05:59:42;100170.00;;;-2.70;100.00
76590;BME280;65471;55.908;37.880;2024-02-23T06:02:09;100174.19;;;-2.67;100.00
76590;BME280;65471;55.908;37.880;2024-02-23T06:04:36;100170.59;;;-2.66;100.00
76590;BME280;65471;55.908;37.880;2024-02-23T06:07:03;100181.47;;;-2.69;100.00
76590;BME280;65471;55.908;37.880;2024-02-23T06:09:30;100195.38;;;-2.67;100.00
76590;BME280;65471;55.908;37.880;2024-02-23T06:11:57;100197.06;;;-2.66;100.00
76590;BME280;65471;55.908;37.880;2024-02-23T06:14:24;100201.63;;;-2.68;100.00
76590;BME280;65471;55.908;37.880;2024-02-23T06:16:51;100203.72;;;-2.72;100.00
76590;BME280;65471;55.908;37.880;2024-02-23T06:19:18;100194.69;;;-2.69;100.00
76590;BME280;65471;55.908;37.880;2024-02-23T06:21:49;100201.50;;;-2.67;100.00
76590;BME280;65471;55.908;37.880;2024-02-23T06:24:17;100202.34;;;-2.66;100.00
76590;BME280;65471;55.908;37.880;2024-02-23T06:26:44;100185.63;;;-2.67;100.00
76590;BME280;65471;55.908;37.880;2024-02-23T06:29:13;100198.59;;;-2.64;100.00
76590;BME280;65471;55.908;37.880;2024-02-23T06:31:40;100196.38;;;-2.58;100.00
76590;BME280;65471;55.908;37.880;2024-02-23T06:34:08;100176.16;;;-2.69;100.00
76590;BME280;65471;55.908;37.880;2024-02-23T06:36:36;100202.94;;;-2.53;100.00
76590;BME280;65471;55.908;37.880;2024-02-23T06:39:04;100202.94;;;-2.53;100.00
76590;BME280;65471;55.908;37.880;2024-02-23T06:41:31;100212.69;;;-2.53;100.00
76590;BME280;65471;55.908;37.880;2024-02-23T06:43:58;100202.94;;;-2.53;100.00
76590;BME280;65471;55.908;37.880;2024-02-23T06:46:25;100206.28;;;-2.51;100.00
76590;BME280;65471;55.908;37.880;2024-02-23T06:48:52;100206.00;;;-2.48;100.00
76590;BME280;65471;55.908;37.880;2024-02-23T06:51:19;100212.97;;;-2.47;100.00
76590;BME280;65471;55.908;37.880;2024-02-23T06:53:47;100209.91;;;-2.52;100.00
76590;BME280;65471;55.908;37.880;2024-02-23T06:56:14;100206.53;;;-2.54;100.00
76590;BME280;65471;55.908;37.880;2024-02-23T06:58:41;100215.06;;;-2.50;100.00
76590;BME280;65471;55.908;37.880;2024-02-23T07:01:08;100215.59;;;-2.47;100.00
76590;BME280;65471;55.908;37.880;2024-02-23T07:03:39;100220.09;;;-2.47;100.00
76590;BME280;65471;55.908;37.880;2024-02-23T07:06:07;100233.75;;;-2.42;100.00
76590;BME280;65471;55.908;37.880;2024-02-23T07:08:37;100231.25;;;-2.44;100.00
76590;BME280;65471;55.908;37.880;2024-02-23T07:11:05;100224.81;;;-2.41;100.00
76590;BME280;65471;55.908;37.880;2024-02-23T07:13:32;100221.06;;;-2.38;100.00
76590;BME280;65471;55.908;37.880;2024-02-23T07:16:00;100215.78;;;-2.38;100.00
76590;BME280;65471;55.908;37.880;2024-02-23T07:18:27;100216.50;;;-2.36;100.00
76590;BME280;65471;55.908;37.880;2024-02-23T07:20:55;100224.16;;;-2.33;100.00
76590;BME280;65471;55.908;37.880;2024-02-23T07:23:22;100222.19;;;-2.31;100.00
76590;BME280;65471;55.908;37.880;2024-02-23T07:25:49;100216.91;;;-2.31;100.00
76590;BME280;65471;55.908;37.880;2024-02-23T07:28:19;100219.13;;;-2.36;100.00
76590;BME280;65471;55.908;37.880;2024-02-23T07:30:46;100220.38;;;-2.40;100.00
76590;BME280;65471;55.908;37.880;2024-02-23T07:33:13;100227.59;;;-2.43;100.00
76590;BME280;65471;55.908;37.880;2024-02-23T07:35:40;100226.38;;;-2.38;100.00
76590;BME280;65471;55.908;37.880;2024-02-23T07:38:08;100226.38;;;-2.38;100.00
76590;BME280;65471;55.908;37.880;2024-02-23T07:40:35;100223.56;;;-2.37;100.00
76590;BME280;65471;55.908;37.880;2024-02-23T07:43:02;100214.66;;;-2.46;100.00
76590;BME280;65471;55.908;37.880;2024-02-23T07:45:29;100228.19;;;-2.39;100.00
76590;BME280;65471;55.908;37.880;2024-02-23T07:47:56;100232.25;;;-2.35;100.00
76590;BME280;65471;55.908;37.880;2024-02-23T07:50:23;100218.72;;;-2.32;100.00
76590;BME280;65471;55.908;37.880;2024-02-23T07:52:50;100219.53;;;-2.31;100.00
76590;BME280;65471;55.908;37.880;2024-02-23T07:55:17;100219.16;;;-2.27;100.00
76590;BME280;65471;55.908;37.880;2024-02-23T07:57:44;100224.72;;;-2.20;100.00
76590;BME280;65471;55.908;37.880;2024-02-23T08:00:11;100227.09;;;-2.17;100.00
76590;BME280;65471;55.908;37.880;2024-02-23T08:02:39;100156.13;;;-2.62;100.00
76590;BME280;65471;55.908;37.880;2024-02-23T08:05:07;100233.09;;;-2.15;100.00
76590;BME280;65471;55.908;37.880;2024-02-23T08:07:35;100244.09;;;-2.10;100.00
76590;BME280;65471;55.908;37.880;2024-02-23T08:10:02;100229.75;;;-2.07;100.00
76590;BME280;65471;55.908;37.880;2024-02-23T08:12:32;100233.94;;;-2.04;100.00
76590;BME280;65471;55.908;37.880;2024-02-23T08:15:00;100221.38;;;-2.02;100.00
76590;BME280;65471;55.908;37.880;2024-02-23T08:17:27;100221.94;;;-1.99;100.00
76590;BME280;65471;55.908;37.880;2024-02-23T08:19:55;100218.88;;;-1.94;100.00
76590;BME280;65471;55.908;37.880;2024-02-23T08:22:22;100226.97;;;-1.96;100.00
76590;BME280;65471;55.908;37.880;2024-02-23T08:24:50;100235.19;;;-1.89;100.00
76590;BME280;65471;55.908;37.880;2024-02-23T08:27:17;100233.38;;;-1.88;100.00
76590;BME280;65471;55.908;37.880;2024-02-23T08:29:44;100246.50;;;-1.87;100.00
76590;BME280;65471;55.908;37.880;2024-02-23T08:32:11;100244.56;;;-1.85;100.00
76590;BME280;65471;55.908;37.880;2024-02-23T08:34:39;100239.25;;;-1.85;100.00
76590;BME280;65471;55.908;37.880;2024-02-23T08:37:07;100247.59;;;-1.80;100.00
76590;BME280;65471;55.908;37.880;2024-02-23T08:39:34;100230.59;;;-1.87;100.00
76590;BME280;65471;55.908;37.880;2024-02-23T08:42:04;100249.56;;;-1.72;100.00
76590;BME280;65471;55.908;37.880;2024-02-23T08:44:31;100247.47;;;-1.68;100.00
76590;BME280;65471;55.908;37.880;2024-02-23T08:46:58;100252.50;;;-1.65;100.00
76590;BME280;65471;55.908;37.880;2024-02-23T08:49:25;100247.88;;;-1.63;100.00
76590;BME280;65471;55.908;37.880;2024-02-23T08:51:52;100250.81;;;-1.66;100.00
76590;BME280;65471;55.908;37.880;2024-02-23T08:54:19;100262.13;;;-1.64;100.00
76590;BME280;65471;55.908;37.880;2024-02-23T08:56:46;100258.78;;;-1.66;100.00
76590;BME280;65471;55.908;37.880;2024-02-23T08:59:13;100259.47;;;-1.64;100.00
76590;BME280;65471;55.908;37.880;2024-02-23T09:01:40;100261.28;;;-1.65;100.00
76590;BME280;65471;55.908;37.880;2024-02-23T09:04:07;100265.75;;;-1.65;100.00
76590;BME280;65471;55.908;37.880;2024-02-23T09:06:34;100267.00;;;-1.60;100.00
76590;BME280;65471;55.908;37.880;2024-02-23T09:09:05;100268.00;;;-1.61;100.00
76590;BME280;65471;55.908;37.880;2024-02-23T09:11:32;100270.50;;;-1.59;100.00
76590;BME280;65471;55.908;37.880;2024-02-23T09:14:00;100271.59;;;-1.52;100.00
76590;BME280;65471;55.908;37.880;2024-02-23T09:16:27;100261.41;;;-1.47;100.00
76590;BME280;65471;55.908;37.880;2024-02-23T09:18:54;100271.03;;;-1.46;100.00
76590;BME280;65471;55.908;37.880;2024-02-23T09:21:21;100271.31;;;-1.49;100.00
76590;BME280;65471;55.908;37.880;2024-02-23T09:23:48;100270.50;;;-1.49;100.00
76590;BME280;65471;55.908;37.880;2024-02-23T09:26:15;100262.94;;;-1.44;100.00
76590;BME280;65471;55.908;37.880;2024-02-23T09:28:42;100264.31;;;-1.40;100.00
76590;BME280;65471;55.908;37.880;2024-02-23T09:31:11;100271.31;;;-1.39;100.00
76590;BME280;65471;55.908;37.880;2024-02-23T09:33:38;100273.25;;;-1.41;100.00
76590;BME280;65471;55.908;37.880;2024-02-23T09:36:05;100266.72;;;-1.47;100.00
76590;BME280;65471;55.908;37.880;2024-02-23T09:38:32;100273.81;;;-1.37;100.00
76590;BME280;65471;55.908;37.880;2024-02-23T09:41:00;100271.84;;;-1.26;100.00
76590;BME280;65471;55.908;37.880;2024-02-23T09:43:30;100271.53;;;-1.13;100.00
76590;BME280;65471;55.908;37.880;2024-02-23T09:45:59;100270.25;;;-1.09;100.00
76590;BME280;65471;55.908;37.880;2024-02-23T09:48:27;100269.88;;;-1.14;100.00
76590;BME280;65471;55.908;37.880;2024-02-23T09:50:55;100276.59;;;-1.19;100.00
76590;BME280;65471;55.908;37.880;2024-02-23T09:53:23;100268.63;;;-1.19;100.00
76590;BME280;65471;55.908;37.880;2024-02-23T09:55:51;100250.59;;;-1.16;100.00
76590;BME280;65471;55.908;37.880;2024-02-23T09:58:19;100273.72;;;-0.98;100.00
76590;BME280;65471;55.908;37.880;2024-02-23T10:00:47;100270.09;;;-0.97;100.00
76590;BME280;65471;55.908;37.880;2024-02-23T10:03:14;100270.66;;;-0.94;100.00
76590;BME280;65471;55.908;37.880;2024-02-23T10:05:42;100266.03;;;-0.92;100.00
76590;BME280;65471;55.908;37.880;2024-02-23T10:08:11;100265.75;;;-0.98;100.00
76590;BME280;65471;55.908;37.880;2024-02-23T10:10:40;100277.38;;;-0.99;100.00
76590;BME280;65471;55.908;37.880;2024-02-23T10:13:08;100275.41;;;-0.97;100.00
76590;BME280;65471;55.908;37.880;2024-02-23T10:15:36;100274.44;;;-0.96;100.00
76590;BME280;65471;55.908;37.880;2024-02-23T10:18:04;100277.22;;;-0.98;100.00
76590;BME280;65471;55.908;37.880;2024-02-23T10:20:31;100279.75;;;-0.96;100.00
76590;BME280;65471;55.908;37.880;2024-02-23T10:22:59;100275.66;;;-0.91;100.00
76590;BME280;65471;55.908;37.880;2024-02-23T10:25:27;100285.13;;;-0.78;100.00
76590;BME280;65471;55.908;37.880;2024-02-23T10:27:54;100282.34;;;-0.77;100.00
76590;BME280;65471;55.908;37.880;2024-02-23T10:30:21;100284.44;;;-0.80;100.00
76590;BME280;65471;55.908;37.880;2024-02-23T10:32:50;100285.41;;;-0.81;100.00
76590;BME280;65471;55.908;37.880;2024-02-23T10:35:22;100288.50;;;-0.86;100.00
76590;BME280;65471;55.908;37.880;2024-02-23T10:37:50;100287.53;;;-0.85;100.00
76590;BME280;65471;55.908;37.880;2024-02-23T10:40:19;100284.56;;;-0.82;100.00
76590;BME280;65471;55.908;37.880;2024-02-23T10:42:47;100293.22;;;-0.80;100.00
76590;BME280;65471;55.908;37.880;2024-02-23T10:45:18;100284.03;;;-0.85;100.00
76590;BME280;65471;55.908;37.880;2024-02-23T10:47:47;100287.22;;;-0.82;100.00
76590;BME280;65471;55.908;37.880;2024-02-23T10:50:15;100296.88;;;-0.81;100.00
76590;BME280;65471;55.908;37.880;2024-02-23T10:52:42;100284.56;;;-0.82;100.00
76590;BME280;65471;55.908;37.880;2024-02-23T10:55:10;100298.28;;;-0.87;100.00
76590;BME280;65471;55.908;37.880;2024-02-23T10:57:37;100294.75;;;-0.77;100.00
76590;BME280;65471;55.908;37.880;2024-02-23T11:00:09;100297.00;;;-0.73;100.00
76590;BME280;65471;55.908;37.880;2024-02-23T11:02:44;100268.34;;;-0.79;100.00
76590;BME280;65471;55.908;37.880;2024-02-23T11:05:14;100311.84;;;-0.52;100.00
76590;BME280;65471;55.908;37.880;2024-02-23T11:07:42;100298.28;;;-0.49;100.00
76590;BME280;65471;55.908;37.880;2024-02-23T11:10:13;100317.59;;;-0.47;100.00
76590;BME280;65471;55.908;37.880;2024-02-23T11:12:40;100309.66;;;-0.57;100.00
76590;BME280;65471;55.908;37.880;2024-02-23T11:15:07;100310.91;;;-0.61;100.00
76590;BME280;65471;55.908;37.880;2024-02-23T11:17:35;100309.53;;;-0.65;100.00
76590;BME280;65471;55.908;37.880;2024-02-23T11:20:04;100311.22;;;-0.64;100.00
76590;BME280;65471;55.908;37.880;2024-02-23T11:22:33;100309.25;;;-0.62;100.00
76590;BME280;65471;55.908;37.880;2024-02-23T11:25:06;100311.38;;;-0.65;100.00
76590;BME280;65471;55.908;37.880;2024-02-23T11:27:38;100314.41;;;-0.60;100.00
76590;BME280;65471;55.908;37.880;2024-02-23T11:30:10;100306.13;;;-0.57;100.00
76590;BME280;65471;55.908;37.880;2024-02-23T11:32:46;100300.81;;;-0.57;100.00
76590;BME280;65471;55.908;37.880;2024-02-23T11:35:16;100311.31;;;-0.56;100.00
76590;BME280;65471;55.908;37.880;2024-02-23T11:37:52;100312.53;;;-0.50;100.00
76590;BME280;65471;55.908;37.880;2024-02-23T11:40:31;100315.34;;;-0.52;100.00
76590;BME280;65471;55.908;37.880;2024-02-23T11:42:59;100322.19;;;-0.49;100.00
76590;BME280;65471;55.908;37.880;2024-02-23T11:45:30;100325.28;;;-0.54;100.00
76590;BME280;65471;55.908;37.880;2024-02-23T11:47:58;100312.69;;;-0.52;100.00
76590;BME280;65471;55.908;37.880;2024-02-23T11:50:27;100314.22;;;-0.49;100.00
76590;BME280;65471;55.908;37.880;2024-02-23T11:52:54;100310.84;;;-0.41;100.00
76590;BME280;65471;55.908;37.880;2024-02-23T11:55:22;100310.41;;;-0.37;100.00
76590;BME280;65471;55.908;37.880;2024-02-23T11:57:51;100301.72;;;-0.39;100.00
76590;BME280;65471;55.908;37.880;2024-02-23T12:00:31;100323.81;;;-0.38;100.00
76590;BME280;65471;55.908;37.880;2024-02-23T12:02:59;100307.09;;;-0.48;100.00
76590;BME280;65471;55.908;37.880;2024-02-23T12:05:27;100326.59;;;-0.30;100.00
76590;BME280;65471;55.908;37.880;2024-02-23T12:07:55;100313.19;;;-0.38;100.00
76590;BME280;65471;55.908;37.880;2024-02-23T12:10:24;100320.72;;;-0.33;100.00
76590;BME280;65471;55.908;37.880;2024-02-23T12:12:54;100312.91;;;-0.35;100.00
76590;BME280;65471;55.908;37.880;2024-02-23T12:15:21;100324.91;;;-0.31;100.00
76590;BME280;65471;55.908;37.880;2024-02-23T12:17:48;100330.06;;;-0.29;100.00
76590;BME280;65471;55.908;37.880;2024-02-23T12:20:16;100334.25;;;-0.27;100.00
76590;BME280;65471;55.908;37.880;2024-02-23T12:22:44;100329.38;;;-0.31;100.00
76590;BME280;65471;55.908;37.880;2024-02-23T12:25:12;100315.84;;;-0.38;100.00
76590;BME280;65471;55.908;37.880;2024-02-23T12:27:40;100337.44;;;-0.23;100.00
76590;BME280;65471;55.908;37.880;2024-02-23T12:30:15;100336.94;;;-0.27;100.00
76590;BME280;65471;55.908;37.880;2024-02-23T12:32:44;100331.19;;;-0.32;100.00